Acequia, ID

12:00 PM MDT on September 18, 2014 (GMT -0600)
Burley Municipal | Change Station
CLOSE
Current Station
Airport
Location: Burley,
Elevation: 4150 ft
Nearby Weather Stations

Elev 4150 ft 42.54 °N, 113.77 °W | Updated 7 minutes ago

Clear
Clear
78 °F
Feels Like 78 °F
N
13
Wind Variable Wind from West
Gusts 22 mph

Today
High -- | Low -- °F
--% Chance of Precip.
Yesterday
High -- | Low -- °F
Precip. -- in
7:18 AM 7:39 PM
Waning Crescent, 25% visible
Pressure 29.73 in
Visibility 10.0 miles
Clouds Clear
Dew Point 49 °F
Humidity 36%
Rainfall 0.00 in
Snow Depth 0 in , 0 in , 0 in
UV 6 out of 12
Pollen 7.00 out of 12
Air Quality Not available.
Flu Activity Not available.
METAR KBYI 181753Z AUTO 27011G19KT 10SM CLR 26/09 A2988 RMK AO2 SLP068 T02560094 10261 20178 51009

More Conditions Fewer Conditions

Pressure 29.73 in
Visibility 10.0 miles
Clouds Clear
Dew Point 49 °F
Humidity 36%
Rainfall 0.00 in
Snow Depth 0 in , 0 in , 0 in
UV 6 out of 12
Pollen 7.00 out of 12
Air Quality Not available.
Flu Activity Not available.
METAR KBYI 181753Z AUTO 27011G19KT 10SM CLR 26/09 A2988 RMK AO2 SLP068 T02560094 10261 20178 51009

More Conditions Fewer Conditions

10-Day Weather Forecast

Almanac

Astronomy

Sep. 18, 2014 Rise Set
Actual Time 7:18 AM MDT 7:39 PM MDT
Civil Twilight 6:49 AM MDT 8:07 PM MDT
Nautical Twilight 6:16 AM MDT 8:40 PM MDT
Astronomical Twilight 5:42 AM MDT 9:14 PM MDT
Moon 2:08 AM MDT 4:37 PM MDT
Length of Visible Light 13h 17m
Length of Day
12h 21m
Tomorrow will be 2m 52s shorter.
Waning Crescent, 25% of the Moon is Illuminated
Today
Waning Crescent
Sep 24
New
Oct 1
First Quarter
Oct 8
Full
Oct 15
Last Quarter

Today's Extremes

State Highs State Lows

Community

WunderPhotos

Upload Photos

1,754,410 photos uploaded!

Nearby

Snow Depth

Station Depth Elevation
Sunset 0 in 5540 ft
Wilson Creek 0 in 7120 ft
Hilts Creek 0 in 8000 ft
Mud Flat 1 in 5730 ft
Swede Peak 0 in 7640 ft

Earthquake Activity

City Distance Mag. Time & Date
No recent earthquake activity has been reported nearby.
Minimum magnitude displayed is 2.5.

Coastal Water Temperatures

Place Temperature
No Stations Reporting

Nearby Weather Stations